createdAt,value
2022-09-22T00:01:44.884Z,100.00
2022-09-22T00:04:15.189Z,100.00
2022-09-22T00:06:48.712Z,100.00
2022-09-22T00:09:21.999Z,100.00
2022-09-22T00:11:57.663Z,100.00
2022-09-22T00:14:30.902Z,100.00
2022-09-22T00:17:02.258Z,100.00
2022-09-22T00:19:33.381Z,100.00
2022-09-22T00:22:02.679Z,100.00
2022-09-22T00:24:32.026Z,100.00
2022-09-22T00:27:01.938Z,100.00
2022-09-22T00:29:32.363Z,100.00
2022-09-22T00:32:07.199Z,100.00
2022-09-22T00:34:36.449Z,100.00
2022-09-22T00:37:06.430Z,100.00
2022-09-22T00:39:36.473Z,100.00
2022-09-22T00:42:05.978Z,100.00
2022-09-22T00:44:40.115Z,100.00
2022-09-22T00:47:21.752Z,100.00
2022-09-22T00:49:54.940Z,100.00
2022-09-22T00:52:29.989Z,100.00
2022-09-22T00:55:02.220Z,100.00
2022-09-22T00:57:36.507Z,100.00
2022-09-22T01:00:10.546Z,100.00
2022-09-22T01:02:40.185Z,100.00
2022-09-22T01:05:10.381Z,100.00
2022-09-22T01:07:39.471Z,100.00
2022-09-22T01:10:09.163Z,100.00
2022-09-22T01:12:41.869Z,100.00
2022-09-22T01:15:25.269Z,100.00
2022-09-22T01:18:15.899Z,100.00
2022-09-22T01:21:32.271Z,100.00
2022-09-22T01:24:39.684Z,100.00
2022-09-22T01:27:49.713Z,100.00
2022-09-22T01:30:25.362Z,100.00
2022-09-22T01:33:16.369Z,100.00
2022-09-22T01:35:58.817Z,100.00
2022-09-22T01:38:37.532Z,100.00
2022-09-22T01:41:11.907Z,100.00
2022-09-22T01:43:48.675Z,100.00
2022-09-22T01:46:25.261Z,100.00
2022-09-22T01:48:57.045Z,100.00
2022-09-22T01:51:32.048Z,100.00
2022-09-22T01:54:07.501Z,100.00
2022-09-22T01:56:37.930Z,100.00
2022-09-22T01:59:11.275Z,100.00
2022-09-22T02:01:47.197Z,100.00
2022-09-22T02:04:21.301Z,100.00
2022-09-22T02:06:55.425Z,100.00
2022-09-22T02:09:27.222Z,100.00
2022-09-22T02:11:56.277Z,100.00
2022-09-22T02:14:26.397Z,100.00
2022-09-22T02:16:57.314Z,100.00
2022-09-22T02:19:31.548Z,100.00
2022-09-22T02:22:00.812Z,100.00
2022-09-22T02:24:32.665Z,100.00
2022-09-22T02:27:04.957Z,100.00
2022-09-22T02:29:39.438Z,100.00
2022-09-22T02:32:13.894Z,100.00
2022-09-22T02:34:47.256Z,100.00
2022-09-22T02:37:24.058Z,100.00
2022-09-22T02:40:07.063Z,100.00
2022-09-22T02:42:41.165Z,100.00
2022-09-22T02:45:16.499Z,100.00
2022-09-22T02:47:53.234Z,100.00
2022-09-22T02:50:24.233Z,100.00
2022-09-22T02:52:54.467Z,100.00
2022-09-22T02:55:23.325Z,100.00
2022-09-22T02:57:52.098Z,100.00
2022-09-22T03:00:22.156Z,100.00
2022-09-22T03:02:52.453Z,100.00
2022-09-22T03:05:21.290Z,100.00
2022-09-22T03:07:50.061Z,100.00
2022-09-22T03:10:19.046Z,100.00
2022-09-22T03:13:14.500Z,100.00
2022-09-22T03:15:36.849Z,100.00
2022-09-22T03:18:07.181Z,100.00
2022-09-22T03:20:36.877Z,100.00
2022-09-22T03:23:05.673Z,100.00
2022-09-22T03:25:34.702Z,100.00
2022-09-22T03:28:03.841Z,100.00
2022-09-22T03:30:33.023Z,100.00
2022-09-22T03:33:01.938Z,100.00
2022-09-22T03:35:32.176Z,100.00
2022-09-22T03:38:01.039Z,100.00
2022-09-22T03:40:29.914Z,100.00
2022-09-22T03:42:58.837Z,100.00
2022-09-22T03:45:28.226Z,100.00
2022-09-22T03:47:56.986Z,100.00
2022-09-22T03:50:25.828Z,100.00
2022-09-22T03:52:55.987Z,100.00
2022-09-22T03:55:25.433Z,100.00
2022-09-22T03:57:54.220Z,100.00
2022-09-22T04:00:23.247Z,100.00
2022-09-22T04:02:52.139Z,100.00
2022-09-22T04:05:20.934Z,100.00
2022-09-22T04:07:49.745Z,100.00
2022-09-22T04:10:20.905Z,100.00
2022-09-22T04:12:49.723Z,100.00
2022-09-22T04:15:18.832Z,100.00
2022-09-22T04:17:47.617Z,100.00
2022-09-22T04:20:16.966Z,100.00
2022-09-22T04:22:45.801Z,100.00
2022-09-22T04:25:14.641Z,100.00
2022-09-22T04:27:45.205Z,100.00
2022-09-22T04:30:14.606Z,100.00
2022-09-22T04:32:43.497Z,100.00
2022-09-22T04:35:13.124Z,100.00
2022-09-22T04:37:43.021Z,100.00
2022-09-22T04:40:12.553Z,100.00
2022-09-22T04:42:41.648Z,100.00
2022-09-22T04:45:13.005Z,100.00
2022-09-22T04:47:41.841Z,100.00
2022-09-22T04:50:12.550Z,100.00
2022-09-22T04:52:48.066Z,100.00
2022-09-22T04:55:34.511Z,100.00
2022-09-22T04:58:03.422Z,100.00
2022-09-22T05:00:33.618Z,100.00
2022-09-22T05:03:03.502Z,100.00
2022-09-22T05:05:32.373Z,100.00
2022-09-22T05:08:01.772Z,100.00
2022-09-22T05:10:32.368Z,100.00
2022-09-22T05:13:01.344Z,100.00
2022-09-22T05:15:32.668Z,100.00
2022-09-22T05:18:04.178Z,100.00
2022-09-22T05:20:33.134Z,100.00
2022-09-22T05:23:02.075Z,100.00
2022-09-22T05:25:31.057Z,100.00
2022-09-22T05:28:00.118Z,100.00
2022-09-22T05:30:29.248Z,100.00
2022-09-22T05:32:58.058Z,100.00
2022-09-22T05:35:30.826Z,100.00
2022-09-22T05:38:03.962Z,100.00
2022-09-22T05:40:32.914Z,100.00
2022-09-22T05:43:01.808Z,100.00
2022-09-22T05:45:30.656Z,100.00
2022-09-22T05:47:59.632Z,100.00
2022-09-22T05:50:32.471Z,100.00
2022-09-22T05:53:06.403Z,100.00
2022-09-22T05:55:35.775Z,100.00
2022-09-22T05:58:04.882Z,100.00
2022-09-22T06:00:34.265Z,100.00
2022-09-22T06:03:03.584Z,100.00
2022-09-22T06:05:37.631Z,100.00
2022-09-22T06:08:07.942Z,100.00
2022-09-22T06:10:38.406Z,100.00
2022-09-22T06:13:11.095Z,100.00
2022-09-22T06:15:41.345Z,100.00
2022-09-22T06:18:15.309Z,100.00
2022-09-22T06:20:46.985Z,100.00
2022-09-22T06:23:16.164Z,100.00
2022-09-22T06:25:45.116Z,100.00
2022-09-22T06:28:15.772Z,100.00
2022-09-22T06:30:44.741Z,100.00
2022-09-22T06:33:13.763Z,100.00
2022-09-22T06:35:45.488Z,100.00
2022-09-22T06:38:16.186Z,100.00
2022-09-22T06:40:45.889Z,100.00
2022-09-22T06:43:22.733Z,100.00
2022-09-22T06:45:53.044Z,100.00
2022-09-22T06:48:24.099Z,100.00
2022-09-22T06:51:04.299Z,100.00
2022-09-22T06:53:33.339Z,100.00
2022-09-22T06:56:06.168Z,100.00
2022-09-22T06:59:08.348Z,100.00
2022-09-22T07:01:33.877Z,100.00
2022-09-22T07:04:03.058Z,100.00
2022-09-22T07:06:38.479Z,100.00
2022-09-22T07:09:10.331Z,100.00
2022-09-22T07:11:40.422Z,100.00
2022-09-22T07:14:12.753Z,100.00
2022-09-22T07:16:43.436Z,100.00
2022-09-22T07:19:18.247Z,100.00
2022-09-22T07:21:49.852Z,100.00
2022-09-22T07:24:18.728Z,100.00
2022-09-22T07:26:47.871Z,100.00
2022-09-22T07:29:18.694Z,100.00
2022-09-22T07:31:47.625Z,100.00
2022-09-22T07:34:23.258Z,100.00
2022-09-22T07:36:53.851Z,100.00
2022-09-22T07:39:25.230Z,100.00
2022-09-22T07:41:54.192Z,100.00
2022-09-22T07:44:44.316Z,100.00
2022-09-22T07:47:13.908Z,100.00
2022-09-22T07:49:43.080Z,100.00
2022-09-22T07:52:14.085Z,100.00
2022-09-22T07:54:43.029Z,100.00
2022-09-22T07:57:12.740Z,100.00
2022-09-22T07:59:43.543Z,100.00
2022-09-22T08:02:12.557Z,100.00
2022-09-22T08:04:41.368Z,100.00
2022-09-22T08:07:10.220Z,100.00
2022-09-22T08:09:42.429Z,100.00
2022-09-22T08:12:15.117Z,100.00
2022-09-22T08:14:47.911Z,100.00
2022-09-22T08:17:23.423Z,100.00
2022-09-22T08:19:53.945Z,100.00
2022-09-22T08:22:23.073Z,100.00
2022-09-22T08:24:53.464Z,100.00
2022-09-22T08:27:22.472Z,100.00
2022-09-22T08:29:51.271Z,100.00
2022-09-22T08:32:20.259Z,100.00
2022-09-22T08:34:49.253Z,100.00
2022-09-22T08:37:18.232Z,100.00
2022-09-22T08:39:47.079Z,100.00
2022-09-22T08:42:22.211Z,100.00
2022-09-22T08:45:00.431Z,100.00
2022-09-22T08:47:54.105Z,100.00
2022-09-22T08:50:47.782Z,100.00
2022-09-22T08:53:21.645Z,100.00
2022-09-22T08:55:57.138Z,100.00
2022-09-22T08:58:40.628Z,100.00
2022-09-22T09:01:30.546Z,100.00
2022-09-22T09:04:16.799Z,100.00
2022-09-22T09:06:56.390Z,100.00
2022-09-22T09:09:43.944Z,100.00
2022-09-22T09:12:25.816Z,100.00
2022-09-22T09:15:22.118Z,100.00
2022-09-22T09:17:53.432Z,100.00
2022-09-22T09:20:32.575Z,100.00
2022-09-22T09:23:05.103Z,100.00
2022-09-22T09:25:38.823Z,100.00
2022-09-22T09:28:13.865Z,100.00
2022-09-22T09:30:52.714Z,100.00
2022-09-22T09:33:33.596Z,100.00
2022-09-22T09:36:03.954Z,91.02
2022-09-22T09:38:38.947Z,98.71
2022-09-22T09:41:15.444Z,88.40
2022-09-22T09:43:45.667Z,72.42
2022-09-22T09:46:27.945Z,80.74
2022-09-22T09:49:14.603Z,86.99
2022-09-22T09:51:46.125Z,81.84
2022-09-22T09:54:17.965Z,85.95
2022-09-22T09:57:09.598Z,59.96
2022-09-22T09:59:57.074Z,60.81
2022-09-22T10:02:33.403Z,67.04
2022-09-22T10:05:07.790Z,65.68
2022-09-22T10:07:44.686Z,75.29
2022-09-22T10:10:34.278Z,78.29
2022-09-22T10:13:39.443Z,66.34
2022-09-22T10:16:30.848Z,65.25
2022-09-22T10:19:25.160Z,65.00
2022-09-22T10:21:56.137Z,65.24
2022-09-22T10:24:32.635Z,62.19
2022-09-22T10:27:05.196Z,65.78
2022-09-22T10:29:36.335Z,66.05
2022-09-22T10:32:16.364Z,67.02
2022-09-22T10:34:48.969Z,67.33
2022-09-22T10:37:21.053Z,65.68
2022-09-22T10:39:52.556Z,66.77
2022-09-22T10:42:34.357Z,69.66
2022-09-22T10:48:14.248Z,69.16
2022-09-22T10:51:00.128Z,69.88
2022-09-22T10:53:59.787Z,70.60
2022-09-22T10:56:38.205Z,71.55
2022-09-22T10:59:32.681Z,70.03
2022-09-22T11:02:25.783Z,65.51
2022-09-22T11:05:01.568Z,63.70
2022-09-22T11:08:21.906Z,63.42
2022-09-22T11:11:20.169Z,65.50
2022-09-22T11:14:05.836Z,67.00
2022-09-22T11:17:03.770Z,67.53
2022-09-22T11:19:58.829Z,66.88
2022-09-22T11:23:00.777Z,67.97
2022-09-22T11:25:50.681Z,69.51
2022-09-22T11:28:35.565Z,69.86
2022-09-22T11:31:04.586Z,69.25
2022-09-22T11:34:01.212Z,70.54
2022-09-22T11:36:45.832Z,69.96
2022-09-22T11:53:58.668Z,63.89
2022-09-22T11:56:43.546Z,63.10
2022-09-22T11:59:31.456Z,63.43
2022-09-22T12:02:06.406Z,63.24
2022-09-22T12:04:55.120Z,64.57
2022-09-22T12:07:29.710Z,65.38
2022-09-22T12:10:04.371Z,65.04
2022-09-22T12:12:35.330Z,65.09
2022-09-22T12:15:17.688Z,64.81
2022-09-22T12:17:57.083Z,64.62
2022-09-22T12:20:41.586Z,65.39
2022-09-22T12:23:22.144Z,64.78
2022-09-22T12:25:58.187Z,63.35
2022-09-22T12:28:29.688Z,63.35
2022-09-22T12:31:14.415Z,64.36
2022-09-22T12:34:05.641Z,60.91
2022-09-22T12:36:59.501Z,58.17
2022-09-22T12:39:32.083Z,58.91
2022-09-22T12:42:04.617Z,58.13
2022-09-22T12:44:38.757Z,57.63
2022-09-22T12:47:22.464Z,55.44
2022-09-22T12:49:55.518Z,55.15
2022-09-22T12:53:04.885Z,56.55
2022-09-22T12:55:39.461Z,54.83
2022-09-22T12:58:46.016Z,54.45
2022-09-22T13:01:45.016Z,56.65
2022-09-22T13:04:20.164Z,60.00
2022-09-22T13:07:35.723Z,61.17
2022-09-22T13:10:56.419Z,62.65
2022-09-22T13:13:41.480Z,60.00
2022-09-22T13:16:45.239Z,61.36
2022-09-22T13:19:14.886Z,64.19
2022-09-22T13:21:43.812Z,65.54
2022-09-22T13:24:26.545Z,65.37
2022-09-22T13:27:05.901Z,65.66
2022-09-22T13:29:36.581Z,63.83
2022-09-22T13:32:26.829Z,63.68
2022-09-22T13:34:55.951Z,64.30
2022-09-22T13:37:25.906Z,65.64
2022-09-22T13:39:57.256Z,66.86
2022-09-22T13:42:31.388Z,67.63
2022-09-22T13:45:03.848Z,66.76
2022-09-22T13:47:35.330Z,60.93
2022-09-22T13:50:07.946Z,61.63
2022-09-22T13:52:39.633Z,59.12
2022-09-22T13:55:14.129Z,61.46
2022-09-22T13:57:44.232Z,61.37
2022-09-22T14:00:26.501Z,61.00
2022-09-22T14:02:58.365Z,61.44
2022-09-22T14:05:30.214Z,62.21
2022-09-22T14:08:20.294Z,62.73
2022-09-22T14:10:49.933Z,64.12
2022-09-22T14:13:41.658Z,63.06
2022-09-22T14:16:28.046Z,63.45
2022-09-22T14:19:06.542Z,64.93
2022-09-22T14:21:42.584Z,63.57
2022-09-22T14:24:15.376Z,64.74
2022-09-22T14:26:50.409Z,65.30
2022-09-22T14:29:29.760Z,66.41
2022-09-22T14:32:11.822Z,66.75
2022-09-22T14:34:49.064Z,66.70
2022-09-22T14:37:26.350Z,67.47
2022-09-22T14:39:57.536Z,64.13
2022-09-22T14:42:30.851Z,64.90
2022-09-22T14:45:21.124Z,59.98
2022-09-22T14:48:11.157Z,61.64
2022-09-22T14:50:45.792Z,61.32
2022-09-22T14:53:22.214Z,60.51
2022-09-22T14:55:54.779Z,59.95
2022-09-22T14:58:26.014Z,59.83
2022-09-22T15:01:15.360Z,60.17
2022-09-22T15:03:53.342Z,61.64
2022-09-22T15:06:23.795Z,62.61
2022-09-22T15:08:55.115Z,59.83
2022-09-22T15:11:49.498Z,58.91
2022-09-22T15:14:42.064Z,60.19
2022-09-22T15:17:59.009Z,61.76
2022-09-22T15:20:33.361Z,62.48
2022-09-22T15:23:04.202Z,61.90
2022-09-22T15:25:33.273Z,62.71
2022-09-22T15:28:07.613Z,62.20
2022-09-22T15:30:36.259Z,63.35
2022-09-22T15:33:05.185Z,62.96
2022-09-22T15:35:37.979Z,63.34
2022-09-22T15:38:17.423Z,64.91
2022-09-22T15:40:47.389Z,65.49
2022-09-22T15:43:19.417Z,65.24
2022-09-22T15:45:50.643Z,63.11
2022-09-22T15:48:29.194Z,64.49
2022-09-22T15:51:00.020Z,64.92
2022-09-22T15:53:31.040Z,64.50
2022-09-22T15:56:03.439Z,64.43
2022-09-22T15:58:36.110Z,64.33
2022-09-22T16:01:05.807Z,64.52
2022-09-22T16:03:41.038Z,65.03
2022-09-22T16:06:14.207Z,66.23
2022-09-22T16:08:51.635Z,66.80
2022-09-22T16:11:23.415Z,67.13
2022-09-22T16:13:53.005Z,64.51
2022-09-22T16:16:21.929Z,62.98
2022-09-22T16:18:50.824Z,62.92
2022-09-22T16:21:24.589Z,62.41
2022-09-22T16:23:58.673Z,63.08
2022-09-22T16:26:31.903Z,62.46
2022-09-22T16:29:01.965Z,62.95
2022-09-22T16:31:31.161Z,64.10
2022-09-22T16:34:01.819Z,64.59
2022-09-22T16:36:33.185Z,65.13
2022-09-22T16:39:04.379Z,65.87
2022-09-22T16:41:35.060Z,68.01
2022-09-22T16:44:04.942Z,68.24
2022-09-22T16:46:35.722Z,68.68
2022-09-22T16:49:08.300Z,69.66
2022-09-22T16:51:40.104Z,70.48
2022-09-22T16:54:12.589Z,71.59
2022-09-22T16:56:43.453Z,73.34
2022-09-22T16:59:15.378Z,75.06
2022-09-22T17:01:44.779Z,75.47
2022-09-22T17:04:17.239Z,76.51
2022-09-22T17:06:46.855Z,78.12
2022-09-22T17:09:17.968Z,79.84
2022-09-22T17:11:48.767Z,81.15
2022-09-22T17:14:21.737Z,81.56
2022-09-22T17:16:52.877Z,81.97
2022-09-22T17:19:24.546Z,83.17
2022-09-22T17:21:57.191Z,84.16
2022-09-22T17:24:29.198Z,85.14
2022-09-22T17:26:59.991Z,87.26
2022-09-22T17:29:31.700Z,87.58
2022-09-22T17:32:07.883Z,89.47
2022-09-22T17:34:38.376Z,90.68
2022-09-22T17:37:08.400Z,92.12
2022-09-22T17:39:38.836Z,95.93
2022-09-22T17:42:08.025Z,96.24
2022-09-22T17:44:36.947Z,94.64
2022-09-22T17:47:23.829Z,95.47
2022-09-22T17:50:10.255Z,95.30
2022-09-22T17:52:56.668Z,95.27
2022-09-22T17:55:27.373Z,95.50
2022-09-22T17:57:57.410Z,96.78
2022-09-22T18:00:27.090Z,96.67
2022-09-22T18:02:56.956Z,97.22
2022-09-22T18:05:34.135Z,97.33
2022-09-22T18:08:04.011Z,97.86
2022-09-22T18:10:34.474Z,98.40
2022-09-22T18:13:04.528Z,99.34
2022-09-22T18:15:33.585Z,99.54
2022-09-22T18:18:03.142Z,99.92
2022-09-22T18:20:33.822Z,99.86
2022-09-22T18:23:03.069Z,100.00
2022-09-22T18:25:34.095Z,100.00
2022-09-22T18:28:04.024Z,100.00
2022-09-22T18:33:37.228Z,100.00
2022-09-22T18:36:06.417Z,100.00
2022-09-22T18:38:42.351Z,100.00
2022-09-22T18:41:15.837Z,100.00
2022-09-22T18:43:48.503Z,100.00
2022-09-22T18:46:25.114Z,100.00
2022-09-22T18:49:07.024Z,100.00
2022-09-22T18:52:21.588Z,100.00
2022-09-22T18:54:59.791Z,100.00
2022-09-22T18:57:32.737Z,100.00
2022-09-22T19:00:40.438Z,100.00
2022-09-22T19:03:37.507Z,100.00
2022-09-22T19:06:06.868Z,100.00
2022-09-22T19:08:35.741Z,100.00
2022-09-22T19:11:04.732Z,100.00
2022-09-22T19:13:38.191Z,100.00
2022-09-22T19:16:07.601Z,100.00
2022-09-22T19:18:36.518Z,100.00
2022-09-22T19:21:05.749Z,100.00
2022-09-22T19:23:34.767Z,100.00
2022-09-22T19:26:04.299Z,100.00
2022-09-22T19:28:33.391Z,100.00
2022-09-22T19:31:03.814Z,100.00
2022-09-22T19:33:32.796Z,100.00
2022-09-22T19:36:01.782Z,100.00
2022-09-22T19:38:31.486Z,100.00
2022-09-22T19:41:00.896Z,100.00
2022-09-22T19:43:29.821Z,100.00
2022-09-22T19:45:58.754Z,100.00
2022-09-22T19:48:29.066Z,100.00
2022-09-22T19:50:59.625Z,100.00
2022-09-22T19:53:28.587Z,100.00
2022-09-22T19:55:58.098Z,100.00
2022-09-22T19:58:27.226Z,100.00
2022-09-22T20:00:56.258Z,100.00
2022-09-22T20:03:25.889Z,100.00
2022-09-22T20:05:56.264Z,100.00
2022-09-22T20:08:27.202Z,100.00
2022-09-22T20:11:16.347Z,100.00
2022-09-22T20:14:03.150Z,100.00
2022-09-22T20:16:32.849Z,100.00
2022-09-22T20:19:01.736Z,100.00
2022-09-22T20:21:33.363Z,100.00
2022-09-22T20:24:02.384Z,100.00
2022-09-22T20:26:31.691Z,100.00
2022-09-22T20:29:01.172Z,100.00
2022-09-22T20:31:30.100Z,100.00
2022-09-22T20:33:59.230Z,100.00
2022-09-22T20:36:28.202Z,100.00
2022-09-22T20:38:59.152Z,100.00
2022-09-22T20:41:28.271Z,100.00
2022-09-22T20:43:58.474Z,100.00
2022-09-22T20:46:27.563Z,100.00
2022-09-22T20:48:59.039Z,100.00
2022-09-22T20:51:28.574Z,100.00
2022-09-22T20:53:59.040Z,100.00
2022-09-22T20:56:27.990Z,100.00
2022-09-22T20:58:56.791Z,100.00
2022-09-22T21:01:25.689Z,100.00
2022-09-22T21:03:56.062Z,100.00
2022-09-22T21:06:25.635Z,100.00
2022-09-22T21:09:17.173Z,100.00
2022-09-22T21:12:05.275Z,100.00
2022-09-22T21:14:37.275Z,100.00
2022-09-22T21:17:36.316Z,100.00
2022-09-22T21:20:30.486Z,100.00
2022-09-22T21:23:09.087Z,100.00
2022-09-22T21:25:40.572Z,100.00
2022-09-22T21:28:09.509Z,100.00
2022-09-22T21:30:38.401Z,100.00
2022-09-22T21:33:12.761Z,100.00
2022-09-22T21:36:08.996Z,100.00
2022-09-22T21:38:45.727Z,100.00
2022-09-22T21:41:22.371Z,100.00
2022-09-22T21:43:51.865Z,100.00
2022-09-22T21:46:31.008Z,100.00
2022-09-22T21:49:02.153Z,100.00
2022-09-22T21:51:41.399Z,100.00
2022-09-22T21:54:15.762Z,100.00
2022-09-22T21:56:46.883Z,100.00
2022-09-22T21:59:38.992Z,100.00
2022-09-22T22:02:19.205Z,100.00
2022-09-22T22:07:39.547Z,100.00
2022-09-22T22:10:34.485Z,100.00
2022-09-22T22:13:14.289Z,100.00
2022-09-22T22:16:28.611Z,100.00
2022-09-22T22:19:21.478Z,100.00
2022-09-22T22:22:04.553Z,100.00
2022-09-22T22:24:42.394Z,100.00
2022-09-22T22:27:44.457Z,100.00
2022-09-22T22:30:22.011Z,100.00
2022-09-22T22:32:52.599Z,100.00
2022-09-22T22:35:25.368Z,100.00
2022-09-22T22:41:14.196Z,100.00
2022-09-22T22:43:54.158Z,100.00
2022-09-22T22:46:29.025Z,100.00
2022-09-22T22:48:58.806Z,100.00
2022-09-22T22:51:35.450Z,100.00
2022-09-22T22:54:32.256Z,100.00
2022-09-22T22:57:31.581Z,100.00
2022-09-22T23:00:10.216Z,100.00
2022-09-22T23:02:46.180Z,100.00
2022-09-22T23:05:22.932Z,100.00
2022-09-22T23:07:54.543Z,100.00
2022-09-22T23:10:26.087Z,100.00
2022-09-22T23:12:56.726Z,100.00
2022-09-22T23:15:30.855Z,100.00
2022-09-22T23:18:01.293Z,100.00
2022-09-22T23:20:30.364Z,100.00
2022-09-22T23:22:59.175Z,100.00
2022-09-22T23:25:28.106Z,100.00
2022-09-22T23:27:57.032Z,100.00
2022-09-22T23:30:25.953Z,100.00
2022-09-22T23:32:54.821Z,100.00
2022-09-22T23:35:25.164Z,100.00
2022-09-22T23:37:54.038Z,100.00
2022-09-22T23:40:22.961Z,100.00
2022-09-22T23:42:52.040Z,100.00
2022-09-22T23:45:21.129Z,100.00
2022-09-22T23:47:50.104Z,100.00
2022-09-22T23:50:19.523Z,100.00
2022-09-22T23:52:50.989Z,100.00
2022-09-22T23:55:20.371Z,100.00
2022-09-22T23:57:49.225Z,100.00
